Time;durP1;ratioP1;P1;durP2;ratioP2;P2;SDS_P1;SDS_P2;PMS_P1;PMS_P2;Temp;Humidity;BMP_temperature;BMP_pressure;BME280_temperature;BME280_humidity;BME280_pressure;Samples;Min_cycle;Max_cycle;Signal;HPM_P1;HPM_P2
2023/07/27 00:02:25;;;;;;;4.55;2.47;;;;;;;18.25;84.48;99917.56;5079752;28;20106;-60
2023/07/27 00:04:51;;;;;;;3.95;1.80;;;;;;;18.24;84.55;99909.59;5075172;28;20024;-59
2023/07/27 00:07:16;;;;;;;2.67;1.55;;;;;;;18.24;83.18;99910.47;5075841;28;20048;-60
2023/07/27 00:09:42;;;;;;;2.75;1.73;;;;;;;18.19;82.14;99904.53;5089411;28;20040;-60
2023/07/27 00:12:07;;;;;;;3.33;1.70;;;;;;;18.15;82.48;99897.59;5090141;28;20054;-60
2023/07/27 00:14:33;;;;;;;2.88;1.70;;;;;;;18.15;82.46;99889.53;5090138;28;20027;-60
2023/07/27 00:16:58;;;;;;;3.47;1.77;;;;;;;18.13;82.90;99894.16;5089225;28;20052;-60
2023/07/27 00:19:24;;;;;;;2.63;1.58;;;;;;;18.11;83.08;99893.41;5090153;28;20051;-59
2023/07/27 00:21:49;;;;;;;4.35;1.90;;;;;;;18.08;83.90;99898.09;5075745;28;20032;-59
2023/07/27 00:24:14;;;;;;;2.97;1.58;;;;;;;18.02;84.22;99893.13;5081693;28;20062;-60
2023/07/27 00:26:41;;;;;;;3.25;1.70;;;;;;;17.94;85.31;99896.31;5090152;28;20032;-59
2023/07/27 00:29:07;;;;;;;3.13;1.70;;;;;;;17.87;85.92;99888.75;5090469;28;20030;-60
2023/07/27 00:31:32;;;;;;;2.92;1.85;;;;;;;17.81;86.56;99881.03;5089941;28;20028;-61
2023/07/27 00:33:58;;;;;;;3.83;2.28;;;;;;;17.75;87.39;99871.56;5089103;28;20032;-59
2023/07/27 00:36:23;;;;;;;4.60;1.85;;;;;;;17.68;87.47;99872.91;5089362;28;20081;-60
2023/07/27 00:38:48;;;;;;;4.93;1.98;;;;;;;17.68;87.92;99874.72;5088176;28;20118;-60
2023/07/27 00:41:14;;;;;;;6.55;2.10;;;;;;;17.64;88.10;99871.38;5087216;28;20046;-60
2023/07/27 00:43:39;;;;;;;7.10;2.08;;;;;;;17.61;88.63;99876.09;5086380;28;20483;-60
2023/07/27 00:46:05;;;;;;;4.25;1.75;;;;;;;17.56;89.40;99873.66;5071047;28;20024;-60
2023/07/27 00:48:31;;;;;;;2.83;1.50;;;;;;;17.53;89.70;99873.88;5078866;28;20015;-60
2023/07/27 00:50:56;;;;;;;6.80;2.35;;;;;;;17.50;90.81;99871.38;5086805;28;20036;-60
2023/07/27 00:53:22;;;;;;;3.03;2.20;;;;;;;17.47;91.02;99868.88;5087230;28;20032;-60
2023/07/27 00:55:48;;;;;;;7.00;2.35;;;;;;;17.39;91.13;99844.28;5086533;28;20066;-60
2023/07/27 00:58:13;;;;;;;2.90;1.80;;;;;;;17.35;91.46;99850.78;5074046;28;20036;-59
2023/07/27 01:24:46;;;;;;;2.90;1.88;;;;;;;17.64;91.34;99825.66;5066142;28;20185;-61
2023/07/27 01:27:27;;;;;;;5.20;2.08;;;;;;;17.62;90.85;99819.50;5068395;28;20032;-61
2023/07/27 01:30:14;;;;;;;3.25;1.60;;;;;;;17.64;90.45;99817.59;5068617;28;20093;-60
2023/07/27 01:32:41;;;;;;;3.85;1.95;;;;;;;17.64;90.58;99805.94;5066113;28;20447;-60
2023/07/27 01:35:12;;;;;;;4.78;1.77;;;;;;;17.66;90.93;99809.41;5065198;28;20032;-61
2023/07/27 01:37:41;;;;;;;4.50;2.10;;;;;;;17.67;90.99;99805.75;5056151;28;20032;-59
2023/07/27 01:40:09;;;;;;;6.90;2.00;;;;;;;17.67;91.21;99795.88;5062319;28;20711;-60
2023/07/27 01:42:35;;;;;;;3.28;1.85;;;;;;;17.67;90.83;99795.00;5066289;28;20024;-60
2023/07/27 01:45:02;;;;;;;5.25;2.10;;;;;;;17.65;90.69;99791.53;5062335;28;20127;-60
2023/07/27 01:47:29;;;;;;;5.97;1.98;;;;;;;17.68;91.10;99786.81;5067314;28;20116;-60
2023/07/27 01:49:55;;;;;;;3.53;1.98;;;;;;;17.71;91.28;99786.59;5064284;28;20017;-60
2023/07/27 01:52:22;;;;;;;3.17;1.80;;;;;;;17.71;91.08;99780.38;5067141;28;20021;-61
2023/07/27 01:54:49;;;;;;;5.47;1.88;;;;;;;17.71;91.59;99786.59;5053453;28;20319;-60
2023/07/27 01:57:15;;;;;;;3.88;1.73;;;;;;;17.71;91.56;99775.84;5048233;28;20021;-60
2023/07/27 01:59:41;;;;;;;4.25;1.58;;;;;;;17.73;92.04;99775.75;5050075;28;20037;-60
2023/07/27 02:02:07;;;;;;;2.85;1.80;;;;;;;17.73;92.49;99779.31;5068049;28;20039;-60
2023/07/27 02:04:33;;;;;;;5.30;2.17;;;;;;;17.72;92.69;99776.72;5068653;28;20043;-59
2023/07/27 02:06:58;;;;;;;4.13;2.10;;;;;;;17.72;92.64;99763.28;5060236;28;20021;-59
2023/07/27 02:09:25;;;;;;;3.75;2.08;;;;;;;17.73;92.77;99770.38;5048204;28;20143;-60
2023/07/27 02:12:05;;;;;;;3.72;2.17;;;;;;;17.73;92.18;99770.38;5053207;28;20059;-59
2023/07/27 02:14:34;;;;;;;4.00;1.83;;;;;;;17.73;92.21;99763.16;5068357;28;20070;-60
2023/07/27 02:17:07;;;;;;;4.43;2.13;;;;;;;17.76;92.85;99756.75;5068031;28;20052;-60
2023/07/27 02:19:37;;;;;;;4.43;2.15;;;;;;;17.75;91.59;99761.25;5068354;28;20031;-60
2023/07/27 02:22:04;;;;;;;3.00;1.70;;;;;;;17.76;90.84;99757.56;5066925;28;20098;-60
2023/07/27 02:24:31;;;;;;;2.85;1.75;;;;;;;17.74;89.49;99743.34;5087759;28;20024;-59
2023/07/27 02:26:56;;;;;;;3.58;1.80;;;;;;;17.82;88.97;99746.44;5087611;28;20024;-60
2023/07/27 02:29:22;;;;;;;5.25;1.70;;;;;;;17.86;88.79;99745.25;5086451;28;20032;-60
2023/07/27 02:31:47;;;;;;;3.50;1.65;;;;;;;17.89;88.70;99736.13;5085925;28;20060;-61
2023/07/27 02:34:12;;;;;;;4.35;1.92;;;;;;;17.88;88.32;99734.38;5085720;28;20552;-61
2023/07/27 02:36:38;;;;;;;3.28;1.77;;;;;;;17.94;87.75;99745.59;5085530;28;20020;-60
2023/07/27 02:39:03;;;;;;;4.90;2.00;;;;;;;17.94;87.68;99740.22;5086574;28;20125;-60
2023/07/27 02:41:28;;;;;;;4.78;2.05;;;;;;;17.93;87.08;99740.31;5086033;28;20086;-60
2023/07/27 02:43:54;;;;;;;3.85;1.83;;;;;;;17.92;86.40;99739.44;5086417;28;20070;-59
2023/07/27 02:46:19;;;;;;;3.35;1.60;;;;;;;17.94;86.51;99740.22;5085526;28;20039;-60
2023/07/27 02:48:45;;;;;;;4.88;2.03;;;;;;;17.96;86.64;99737.41;5087932;28;20108;-59
2023/07/27 02:51:10;;;;;;;3.65;1.80;;;;;;;17.93;85.63;99738.50;5087554;28;20027;-58
2023/07/27 02:53:35;;;;;;;8.20;2.08;;;;;;;17.92;85.68;99731.38;5084741;28;20027;-60
2023/07/27 02:56:03;;;;;;;2.35;1.50;;;;;;;17.91;85.83;99731.47;5088074;28;20093;-59
2023/07/27 02:58:29;;;;;;;3.55;1.92;;;;;;;17.91;85.32;99740.41;5087488;28;20039;-60
2023/07/27 03:00:58;;;;;;;4.55;1.67;;;;;;;17.88;85.37;99727.19;5088293;28;20028;-60
2023/07/27 03:03:23;;;;;;;3.92;2.10;;;;;;;17.88;84.91;99727.19;5087498;28;20032;-60
2023/07/27 03:05:59;;;;;;;3.17;1.45;;;;;;;17.87;84.49;99730.84;5088012;28;20031;-60
2023/07/27 03:08:28;;;;;;;4.30;2.03;;;;;;;17.90;84.53;99722.56;5090495;28;20727;-60
2023/07/27 03:10:54;;;;;;;3.70;1.73;;;;;;;17.91;84.88;99720.72;5092083;28;20028;-60
2023/07/27 03:13:20;;;;;;;3.28;1.80;;;;;;;17.91;85.34;99724.28;5091611;28;20040;-60
2023/07/27 03:15:45;;;;;;;3.92;2.00;;;;;;;17.90;85.30;99722.56;5090948;28;20028;-60
2023/07/27 03:18:11;;;;;;;4.80;1.92;;;;;;;17.89;84.22;99720.81;5091526;28;20115;-59
2023/07/27 03:20:40;;;;;;;5.50;2.08;;;;;;;17.92;83.94;99731.38;5090256;28;20434;-60
2023/07/27 03:23:07;;;;;;;4.63;2.28;;;;;;;17.93;83.72;99733.13;5069402;28;20041;-60
2023/07/27 03:25:34;;;;;;;3.67;1.80;;;;;;;17.91;84.31;99735.03;5069040;28;20069;-60
2023/07/27 03:28:00;;;;;;;5.90;2.55;;;;;;;17.91;84.28;99729.66;5084146;28;20063;-60
2023/07/27 03:30:26;;;;;;;4.22;1.60;;;;;;;17.88;84.22;99732.56;5087753;28;20042;-59
2023/07/27 03:32:51;;;;;;;2.90;1.48;;;;;;;17.88;84.33;99746.00;5088410;28;20594;-59
2023/07/27 03:35:17;;;;;;;4.60;1.77;;;;;;;17.89;84.25;99736.13;5088217;28;20046;-60
2023/07/27 03:37:42;;;;;;;5.32;1.63;;;;;;;17.91;84.48;99743.13;5089577;28;20027;-59
2023/07/27 03:40:08;;;;;;;3.50;1.70;;;;;;;17.90;84.38;99736.00;5085115;28;20038;-59
2023/07/27 03:42:33;;;;;;;3.67;1.75;;;;;;;17.89;84.80;99731.59;5081176;28;20036;-60
2023/07/27 03:44:59;;;;;;;6.38;1.85;;;;;;;17.90;84.24;99733.31;5090663;28;20027;-60
2023/07/27 03:47:24;;;;;;;3.10;1.60;;;;;;;17.90;84.88;99727.06;5090377;28;20039;-59
2023/07/27 03:49:49;;;;;;;3.10;1.73;;;;;;;17.92;84.82;99719.75;5090269;28;20103;-60
2023/07/27 03:52:15;;;;;;;4.45;1.70;;;;;;;17.89;84.73;99720.81;5089766;28;20027;-60
2023/07/27 03:54:40;;;;;;;3.67;1.73;;;;;;;17.90;84.33;99721.69;5088601;28;20038;-60
2023/07/27 03:57:06;;;;;;;2.95;1.85;;;;;;;17.91;84.97;99724.28;5090036;28;20092;-60
2023/07/27 03:59:31;;;;;;;4.50;1.90;;;;;;;17.88;84.94;99719.09;5078525;28;20480;-60
2023/07/27 04:01:57;;;;;;;3.65;1.70;;;;;;;17.89;84.94;99720.81;5084210;28;20509;-60
2023/07/27 04:04:22;;;;;;;3.80;1.75;;;;;;;17.89;84.45;99722.66;5089620;28;20146;-60
2023/07/27 04:06:48;;;;;;;4.45;1.98;;;;;;;17.90;84.10;99727.06;5076985;28;20503;-59
2023/07/27 04:09:14;;;;;;;4.57;1.88;;;;;;;17.92;84.32;99728.69;5074235;28;20024;-59
2023/07/27 04:11:39;;;;;;;4.65;1.90;;;;;;;17.88;84.35;99729.00;5070045;28;20391;-60
2023/07/27 04:14:05;;;;;;;4.43;2.30;;;;;;;17.88;84.17;99721.78;5084657;28;20077;-59
2023/07/27 04:16:30;;;;;;;2.90;1.63;;;;;;;17.88;84.27;99724.50;5081233;28;20020;-60
2023/07/27 04:18:55;;;;;;;2.85;1.70;;;;;;;17.84;83.93;99722.94;5071594;28;20031;-60
2023/07/27 04:21:21;;;;;;;3.42;1.90;;;;;;;17.90;83.38;99730.63;5081049;28;20039;-59
2023/07/27 04:23:46;;;;;;;3.90;2.13;;;;;;;17.94;83.70;99729.44;5047804;28;20117;-60
2023/07/27 04:26:12;;;;;;;6.10;1.90;;;;;;;17.92;84.32;99715.22;5062475;28;20466;-60
2023/07/27 04:28:37;;;;;;;4.85;1.90;;;;;;;17.95;83.95;99733.88;5067223;28;20678;-59
2023/07/27 04:31:02;;;;;;;6.22;2.10;;;;;;;17.95;84.07;99731.19;5066317;28;20031;-58
2023/07/27 04:33:28;;;;;;;3.03;2.05;;;;;;;17.97;84.01;99733.78;5067837;28;20535;-58
2023/07/27 04:35:57;;;;;;;4.20;1.90;;;;;;;17.99;84.15;99718.41;5065370;28;20081;-61
2023/07/27 04:38:22;;;;;;;8.65;2.13;;;;;;;18.02;84.06;99727.09;5067495;28;20028;-60
2023/07/27 04:40:48;;;;;;;7.13;1.95;;;;;;;18.04;83.99;99724.31;5069094;28;20094;-59
2023/07/27 04:43:13;;;;;;;5.13;2.05;;;;;;;18.05;83.52;99716.16;5067871;28;20055;-59
2023/07/27 04:45:38;;;;;;;3.50;1.52;;;;;;;18.08;83.12;99713.25;5064146;28;20120;-59
2023/07/27 04:48:06;;;;;;;8.40;1.90;;;;;;;18.12;83.17;99717.44;5067274;28;20098;-60
2023/07/27 04:50:31;;;;;;;5.53;1.60;;;;;;;18.11;82.12;99721.09;5068574;28;20059;-59
2023/07/27 04:52:57;;;;;;;4.55;2.08;;;;;;;18.13;82.45;99724.56;5068293;28;20048;-59
2023/07/27 04:55:22;;;;;;;3.13;1.65;;;;;;;18.20;82.84;99715.09;5067643;28;20364;-59
2023/07/27 04:57:47;;;;;;;4.35;1.80;;;;;;;18.23;83.21;99714.03;5068285;28;20039;-59
2023/07/27 05:00:13;;;;;;;4.47;1.90;;;;;;;18.17;81.91;99709.91;5067571;28;20178;-59
2023/07/27 05:02:38;;;;;;;5.32;1.92;;;;;;;18.20;82.05;99704.31;5067219;28;20029;-60
2023/07/27 05:05:04;;;;;;;3.88;2.00;;;;;;;18.22;82.97;99702.38;5067829;28;20158;-59
2023/07/27 05:07:30;;;;;;;3.63;1.98;;;;;;;18.22;82.78;99710.47;5069119;28;20025;-59
2023/07/27 05:09:55;;;;;;;4.47;1.85;;;;;;;18.19;83.22;99699.91;5068186;28;20179;-59
2023/07/27 05:12:20;;;;;;;10.93;2.42;;;;;;;18.23;83.66;99698.75;5068270;28;20036;-60
2023/07/27 05:14:46;;;;;;;4.53;1.85;;;;;;;18.26;83.89;99708.44;5068151;28;20033;-59
2023/07/27 05:17:11;;;;;;;5.57;1.95;;;;;;;18.28;83.85;99701.97;5067870;28;20024;-60
2023/07/27 05:19:36;;;;;;;5.32;2.25;;;;;;;18.29;83.81;99698.31;5066896;28;20024;-58
2023/07/27 05:22:02;;;;;;;4.32;2.05;;;;;;;18.31;83.73;99707.16;5070940;28;20040;-60
2023/07/27 05:24:27;;;;;;;3.38;1.70;;;;;;;18.27;82.52;99686.78;5069636;28;20028;-60
2023/07/27 05:26:53;;;;;;;4.50;1.85;;;;;;;18.31;84.21;99691.00;5072535;28;20028;-61
2023/07/27 05:29:18;;;;;;;3.35;2.00;;;;;;;18.34;84.44;99696.16;5068198;28;20084;-59
2023/07/27 05:31:46;;;;;;;3.17;1.95;;;;;;;18.32;84.57;99687.31;5086108;28;20059;-60
2023/07/27 05:34:12;;;;;;;6.25;2.20;;;;;;;18.31;85.25;99691.00;5087747;28;20027;-60
2023/07/27 05:36:37;;;;;;;2.92;1.98;;;;;;;18.24;84.74;99673.53;5088236;28;20073;-59
2023/07/27 05:39:03;;;;;;;4.40;2.08;;;;;;;18.27;85.35;99692.16;5087491;28;20396;-60
2023/07/27 05:41:29;;;;;;;3.53;2.20;;;;;;;18.20;84.96;99690.00;5085271;28;20060;-60
2023/07/27 05:43:54;;;;;;;5.80;2.13;;;;;;;18.17;85.60;99693.75;5068469;28;20028;-59
2023/07/27 05:46:20;;;;;;;3.20;1.63;;;;;;;18.06;85.95;99690.94;5077226;28;20047;-59
2023/07/27 05:48:45;;;;;;;3.38;2.40;;;;;;;18.08;85.97;99691.72;5088517;28;20476;-60
2023/07/27 05:51:11;;;;;;;3.40;2.22;;;;;;;18.13;86.46;99691.38;5070249;28;20024;-61
2023/07/27 05:53:37;;;;;;;3.15;2.00;;;;;;;18.18;86.92;99689.25;5088507;28;20028;-60
2023/07/27 05:56:02;;;;;;;5.40;2.40;;;;;;;18.24;86.64;99684.31;5083981;28;20709;-60
2023/07/27 05:58:28;;;;;;;5.18;2.65;;;;;;;18.31;87.52;99691.00;5088345;28;20032;-59
2023/07/27 06:01:01;;;;;;;6.22;3.20;;;;;;;18.34;88.30;99690.78;5088069;28;20077;-59
2023/07/27 06:03:28;;;;;;;4.45;2.10;;;;;;;18.38;88.25;99694.13;5088841;28;20039;-59
2023/07/27 06:05:53;;;;;;;5.80;2.10;;;;;;;18.37;88.38;99687.88;5083752;28;20028;-60
2023/07/27 06:08:19;;;;;;;4.28;2.28;;;;;;;18.35;88.71;99689.78;5085609;28;20039;-60
2023/07/27 06:10:44;;;;;;;4.28;2.20;;;;;;;18.32;88.82;99687.31;5085366;28;20024;-60
2023/07/27 06:13:09;;;;;;;5.20;2.28;;;;;;;18.30;88.84;99686.56;5086455;28;20085;-60
2023/07/27 06:15:35;;;;;;;10.73;2.40;;;;;;;18.33;89.21;99689.03;5073927;28;20027;-60
2023/07/27 06:18:00;;;;;;;4.38;2.40;;;;;;;18.38;89.33;99684.19;5085749;28;20103;-60
2023/07/27 06:20:26;;;;;;;3.70;1.95;;;;;;;18.38;89.65;99678.81;5085268;28;20073;-61
2023/07/27 06:22:51;;;;;;;4.82;1.88;;;;;;;18.37;89.81;99669.00;5085113;28;20063;-60
2023/07/27 06:25:16;;;;;;;4.40;2.35;;;;;;;18.40;90.10;99677.88;5087071;28;20020;-60
2023/07/27 06:27:42;;;;;;;5.65;2.63;;;;;;;18.51;89.54;99669.91;5086282;28;20024;-59
2023/07/27 06:30:08;;;;;;;6.47;3.65;;;;;;;18.61;90.10;99674.56;5085956;28;20103;-60
2023/07/27 06:32:34;;;;;;;4.47;2.13;;;;;;;18.65;89.46;99672.50;5081583;28;20089;-59
2023/07/27 06:34:59;;;;;;;6.30;2.65;;;;;;;18.76;88.53;99686.06;5088298;28;20032;-59
2023/07/27 06:37:25;;;;;;;3.60;2.25;;;;;;;18.91;87.81;99682.28;5088712;28;20108;-58
2023/07/27 06:39:50;;;;;;;3.92;2.13;;;;;;;19.01;87.66;99669.88;5088231;28;20039;-58
2023/07/27 06:42:15;;;;;;;5.18;1.90;;;;;;;19.06;86.79;99673.09;5089568;28;20067;-59
2023/07/27 06:44:41;;;;;;;5.50;2.63;;;;;;;19.09;87.41;99679.09;5081866;28;20020;-59
2023/07/27 06:47:06;;;;;;;11.20;3.35;;;;;;;19.10;86.62;99674.59;5071674;28;20078;-58
2023/07/27 06:49:32;;;;;;;5.35;2.83;;;;;;;19.08;86.97;99681.91;5073625;28;20489;-59
2023/07/27 06:51:57;;;;;;;6.32;2.30;;;;;;;19.09;86.77;99675.56;5092107;28;20484;-58
2023/07/27 06:54:22;;;;;;;8.90;1.98;;;;;;;19.10;87.06;99671.88;5091796;28;20060;-58
2023/07/27 06:56:48;;;;;;;4.55;2.08;;;;;;;19.07;86.77;99680.19;5091147;28;20743;-58
2023/07/27 06:59:13;;;;;;;4.32;2.40;;;;;;;19.05;85.94;99676.75;5091682;28;20120;-59
2023/07/27 07:01:39;;;;;;;3.58;1.90;;;;;;;19.09;87.09;99672.88;5091494;28;20515;-58
2023/07/27 07:04:05;;;;;;;5.97;1.83;;;;;;;19.17;87.18;99665.94;5091163;28;20052;-59
2023/07/27 07:06:31;;;;;;;4.22;2.10;;;;;;;19.24;87.04;99655.56;5089767;28;20109;-60
2023/07/27 07:08:57;;;;;;;4.47;1.73;;;;;;;19.32;87.69;99666.69;5090709;28;20039;-60
2023/07/27 07:11:23;;;;;;;5.28;2.13;;;;;;;19.34;87.71;99657.50;5089797;28;20028;-60
2023/07/27 07:13:48;;;;;;;3.63;1.95;;;;;;;19.39;87.84;99660.72;5089481;28;20067;-59
2023/07/27 07:16:13;;;;;;;4.38;1.92;;;;;;;19.42;87.55;99671.28;5089004;28;20103;-59
2023/07/27 07:18:39;;;;;;;4.85;2.25;;;;;;;19.42;87.61;99665.03;5090091;28;20035;-59
2023/07/27 07:21:04;;;;;;;3.10;1.90;;;;;;;19.40;88.04;99664.28;5088953;28;20039;-59
2023/07/27 07:23:30;;;;;;;3.85;2.08;;;;;;;19.41;87.86;99664.16;5090478;28;20127;-58
2023/07/27 07:25:56;;;;;;;3.47;2.08;;;;;;;19.39;87.65;99644.53;5088678;28;20521;-59
2023/07/27 07:28:23;;;;;;;4.60;2.20;;;;;;;19.46;87.67;99651.19;5090138;28;20358;-59
2023/07/27 07:30:48;;;;;;;3.78;2.28;;;;;;;19.49;86.56;99644.69;5091111;28;20790;-59
2023/07/27 07:33:14;;;;;;;3.63;1.67;;;;;;;19.57;86.49;99631.53;5091109;28;20030;-60
2023/07/27 07:35:40;;;;;;;4.85;1.90;;;;;;;19.62;85.86;99629.31;5090376;28;20034;-59
2023/07/27 07:38:06;;;;;;;4.07;1.77;;;;;;;19.70;86.92;99626.91;5088098;28;20028;-59
2023/07/27 07:40:32;;;;;;;4.45;1.80;;;;;;;19.70;85.05;99617.94;5091465;28;20055;-59
2023/07/27 07:42:58;;;;;;;4.20;1.70;;;;;;;19.63;85.35;99620.25;5090984;28;20035;-59
2023/07/27 07:45:24;;;;;;;3.65;2.15;;;;;;;19.60;85.38;99615.94;5090011;28;20027;-59
2023/07/27 07:47:49;;;;;;;3.75;1.90;;;;;;;19.61;85.32;99614.09;5091417;28;20403;-59
2023/07/27 07:50:15;;;;;;;3.08;1.92;;;;;;;19.63;85.52;99609.47;5090039;28;20023;-59
2023/07/27 07:52:40;;;;;;;5.22;2.08;;;;;;;19.60;85.26;99596.22;5090143;28;20027;-59
2023/07/27 07:55:08;;;;;;;3.55;2.05;;;;;;;19.67;85.41;99592.03;5090205;28;20578;-59
2023/07/27 07:57:34;;;;;;;4.03;1.90;;;;;;;19.78;84.47;99592.09;5090451;28;20024;-59
2023/07/27 07:59:59;;;;;;;5.43;2.20;;;;;;;19.86;84.61;99589.66;5089370;28;20471;-58
2023/07/27 08:02:25;;;;;;;4.03;2.25;;;;;;;19.86;84.83;99581.56;5088849;28;20055;-59
2023/07/27 08:04:50;;;;;;;3.92;2.08;;;;;;;19.96;84.68;99587.97;5088843;28;20114;-59
2023/07/27 08:07:15;;;;;;;4.35;2.05;;;;;;;19.99;84.24;99598.53;5088033;28;20028;-59
2023/07/27 08:09:41;;;;;;;5.15;2.20;;;;;;;19.96;83.23;99590.69;5087425;28;20023;-60
2023/07/27 08:12:07;;;;;;;2.92;1.45;;;;;;;19.92;81.49;99583.78;5083139;28;20028;-59
2023/07/27 08:14:32;;;;;;;3.55;1.73;;;;;;;20.00;81.77;99586.75;5087543;28;20020;-60
2023/07/27 08:16:58;;;;;;;2.78;1.77;;;;;;;20.04;81.98;99590.94;5088010;28;20059;-60
2023/07/27 08:19:23;;;;;;;4.75;1.70;;;;;;;20.00;81.06;99596.72;5087761;28;20024;-60
2023/07/27 08:21:49;;;;;;;3.72;1.77;;;;;;;20.04;81.22;99585.53;5088137;28;20042;-59
2023/07/27 08:24:14;;;;;;;3.05;1.48;;;;;;;20.11;82.12;99586.78;5076024;28;20024;-59
2023/07/27 08:26:39;;;;;;;4.65;2.90;;;;;;;20.11;81.16;99588.63;5089402;28;20036;-59
2023/07/27 08:29:05;;;;;;;3.20;1.60;;;;;;;20.12;81.62;99577.69;5090158;28;20024;-59
2023/07/27 08:31:30;;;;;;;3.90;1.60;;;;;;;20.11;82.13;99581.38;5082959;28;20035;-59
2023/07/27 08:33:56;;;;;;;3.55;1.60;;;;;;;20.05;81.39;99578.31;5069842;28;20043;-59
2023/07/27 08:36:21;;;;;;;5.93;1.85;;;;;;;20.05;81.39;99579.16;5071706;28;20020;-60
2023/07/27 08:38:47;;;;;;;2.38;1.40;;;;;;;20.06;81.86;99572.78;5090319;28;20028;-59
2023/07/27 08:41:12;;;;;;;2.70;1.40;;;;;;;19.96;79.62;99569.09;5089476;28;20028;-60
2023/07/27 08:43:38;;;;;;;4.15;1.67;;;;;;;20.04;79.58;99565.78;5082827;28;20511;-58
2023/07/27 08:46:04;;;;;;;5.80;1.67;;;;;;;20.09;80.01;99564.44;5069355;28;20032;-59
2023/07/27 08:48:30;;;;;;;3.22;1.77;;;;;;;20.09;80.15;99559.03;5071839;28;20040;-58
2023/07/27 08:50:57;;;;;;;4.55;1.90;;;;;;;20.10;78.94;99558.03;5089140;28;20513;-59
2023/07/27 08:53:23;;;;;;;3.92;1.55;;;;;;;20.16;79.29;99559.44;5089607;28;20074;-60
2023/07/27 08:55:48;;;;;;;2.65;1.80;;;;;;;20.31;78.32;99560.94;5088497;28;20126;-59
2023/07/27 08:58:14;;;;;;;3.92;1.75;;;;;;;20.48;76.69;99561.31;5087396;28;20047;-59
2023/07/27 09:00:40;;;;;;;3.80;1.42;;;;;;;20.68;75.32;99562.41;5088495;28;20032;-60
2023/07/27 09:03:09;;;;;;;2.33;1.48;;;;;;;20.92;74.72;99571.22;5088065;28;20050;-59
2023/07/27 09:05:54;;;;;;;4.25;1.63;;;;;;;20.97;75.66;99569.03;5087853;28;20028;-59
2023/07/27 09:08:20;;;;;;;6.28;1.92;;;;;;;21.02;75.68;99574.91;5087581;28;20392;-59
2023/07/27 09:10:46;;;;;;;3.33;1.65;;;;;;;20.98;75.80;99573.47;5086237;28;20073;-60
2023/07/27 09:13:12;;;;;;;4.40;1.75;;;;;;;20.99;75.04;99577.03;5085780;28;20024;-59
2023/07/27 09:15:42;;;;;;;4.10;1.90;;;;;;;21.01;75.03;99577.75;5068114;28;20097;-60
2023/07/27 09:18:10;;;;;;;2.80;1.60;;;;;;;21.06;75.53;99578.22;5067974;28;20024;-59
2023/07/27 09:20:35;;;;;;;3.92;1.75;;;;;;;21.02;74.66;99571.38;5085948;28;20111;-60
2023/07/27 09:23:01;;;;;;;3.00;1.75;;;;;;;21.06;74.86;99573.69;5088506;28;20136;-60
2023/07/27 09:25:27;;;;;;;2.97;1.60;;;;;;;21.13;75.36;99580.31;5088362;28;20188;-59
2023/07/27 09:27:54;;;;;;;4.03;1.77;;;;;;;21.19;75.64;99574.38;5089190;28;20035;-59
2023/07/27 09:30:20;;;;;;;3.78;1.98;;;;;;;21.26;74.87;99574.72;5089088;28;20028;-60
2023/07/27 09:32:49;;;;;;;3.95;1.30;;;;;;;21.39;75.28;99559.19;5088974;28;20027;-60
2023/07/27 09:35:16;;;;;;;3.40;1.60;;;;;;;21.52;74.70;99562.56;5088279;28;20047;-60
2023/07/27 09:37:47;;;;;;;2.83;1.52;;;;;;;21.61;74.99;99565.41;5085626;28;20059;-60
2023/07/27 09:40:17;;;;;;;3.92;1.80;;;;;;;21.76;74.29;99574.06;5087562;28;20081;-59
2023/07/27 09:42:44;;;;;;;3.38;1.73;;;;;;;21.77;72.09;99575.78;5088737;28;20030;-59
2023/07/27 09:45:10;;;;;;;3.97;1.55;;;;;;;21.85;72.02;99576.00;5087557;28;20032;-58
2023/07/27 09:47:36;;;;;;;2.47;1.70;;;;;;;21.88;70.68;99568.47;5086852;28;20125;-60
2023/07/27 09:50:02;;;;;;;4.13;1.38;;;;;;;22.04;70.63;99578.84;5087127;28;20028;-60
2023/07/27 09:52:29;;;;;;;3.25;1.67;;;;;;;22.02;70.74;99573.56;5071432;28;20024;-60
2023/07/27 09:54:56;;;;;;;3.40;1.85;;;;;;;22.17;69.81;99571.38;5073624;28;20063;-59
2023/07/27 09:57:22;;;;;;;4.95;2.15;;;;;;;22.24;69.36;99586.09;5071299;28;20028;-59
2023/07/27 09:59:48;;;;;;;2.25;1.33;;;;;;;22.10;68.08;99573.75;5082460;28;20032;-60
2023/07/27 10:02:14;;;;;;;5.00;1.55;;;;;;;22.06;69.07;99576.84;5071126;28;20496;-59
2023/07/27 10:04:45;;;;;;;3.10;1.70;;;;;;;22.16;69.71;99566.94;5066075;28;20037;-60
2023/07/27 10:07:11;;;;;;;7.07;1.98;;;;;;;22.45;69.24;99570.69;5075507;28;20062;-59
2023/07/27 10:09:36;;;;;;;2.78;1.30;;;;;;;22.66;66.61;99568.81;5086827;28;20024;-60
2023/07/27 10:12:04;;;;;;;4.53;1.50;;;;;;;22.88;66.30;99565.88;5069564;28;20108;-59
2023/07/27 10:14:31;;;;;;;3.15;1.50;;;;;;;22.93;64.35;99574.44;5067308;28;20020;-59
2023/07/27 10:17:08;;;;;;;3.00;1.38;;;;;;;22.97;63.87;99567.75;5071762;28;20465;-60
2023/07/27 10:19:43;;;;;;;2.35;1.27;;;;;;;22.99;64.63;99557.63;5083619;28;20528;-59
2023/07/27 10:22:16;;;;;;;4.32;1.45;;;;;;;23.01;64.71;99555.66;5087434;28;20105;-60
2023/07/27 10:24:56;;;;;;;3.75;1.45;;;;;;;23.03;64.64;99553.63;5088844;28;20032;-59
2023/07/27 10:27:22;;;;;;;2.70;1.40;;;;;;;23.04;64.99;99544.50;5087552;28;20730;-59
2023/07/27 10:29:52;;;;;;;3.05;1.35;;;;;;;22.94;65.17;99543.63;5087591;28;20047;-58
2023/07/27 10:32:18;;;;;;;2.78;1.33;;;;;;;22.96;64.48;99541.66;5088183;28;20027;-59
2023/07/27 10:34:49;;;;;;;2.45;1.40;;;;;;;22.97;63.68;99537.91;5088243;28;20023;-60
2023/07/27 10:37:15;;;;;;;2.08;1.27;;;;;;;23.16;64.89;99529.81;5066602;28;20476;-59
2023/07/27 10:39:45;;;;;;;3.22;1.17;;;;;;;23.26;63.70;99530.72;5087508;28;20051;-59
2023/07/27 10:42:14;;;;;;;6.28;1.58;;;;;;;23.34;63.49;99528.13;5069385;28;20042;-59
2023/07/27 10:44:52;;;;;;;2.90;1.20;;;;;;;23.50;63.15;99526.72;5086805;28;20027;-59
2023/07/27 10:47:32;;;;;;;3.17;1.20;;;;;;;23.68;63.17;99527.72;5087227;28;20082;-59
2023/07/27 10:49:59;;;;;;;2.70;1.05;;;;;;;23.77;63.59;99521.44;5086324;28;20088;-59
2023/07/27 10:52:25;;;;;;;3.42;1.40;;;;;;;23.77;64.55;99510.56;5087293;28;20055;-59
2023/07/27 10:54:51;;;;;;;2.63;1.20;;;;;;;23.62;63.46;99517.44;5086506;28;20066;-59
2023/07/27 10:57:18;;;;;;;2.70;1.27;;;;;;;23.64;63.64;99515.44;5085399;28;20059;-60
2023/07/27 10:59:46;;;;;;;1.98;1.20;;;;;;;23.59;65.32;99506.88;5086084;28;20027;-60
2023/07/27 11:02:23;;;;;;;1.83;1.08;;;;;;;23.55;68.23;99500.88;5085361;28;20031;-60
2023/07/27 11:05:07;;;;;;;4.75;1.42;;;;;;;23.39;67.24;99501.44;5085745;28;20371;-59
2023/07/27 11:07:34;;;;;;;3.03;1.50;;;;;;;23.28;68.39;99488.00;5086127;28;20024;-59
2023/07/27 11:10:09;;;;;;;2.47;1.20;;;;;;;23.37;71.35;99500.75;5085703;28;20028;-59
2023/07/27 11:12:50;;;;;;;2.97;1.30;;;;;;;23.36;71.23;99496.28;5086662;28;20039;-60
2023/07/27 11:15:16;;;;;;;3.05;1.52;;;;;;;23.27;71.33;99504.44;5086546;28;20032;-60
2023/07/27 11:17:42;;;;;;;3.47;1.50;;;;;;;23.22;71.47;99498.53;5086738;28;20475;-60
2023/07/27 11:20:10;;;;;;;2.95;1.40;;;;;;;23.25;72.11;99487.41;5088054;28;20027;-59
2023/07/27 11:22:36;;;;;;;2.80;1.42;;;;;;;23.39;72.42;99496.00;5087990;28;20131;-60
2023/07/27 11:25:04;;;;;;;3.80;1.27;;;;;;;23.52;73.10;99492.16;5071587;28;20448;-59
2023/07/27 11:27:29;;;;;;;3.80;1.75;;;;;;;23.63;72.04;99494.69;5067651;28;20032;-60
2023/07/27 11:29:59;;;;;;;2.50;1.20;;;;;;;23.65;72.88;99488.13;5069994;28;20044;-61
2023/07/27 11:32:26;;;;;;;2.83;1.50;;;;;;;23.69;72.81;99486.81;5087278;28;20756;-59
2023/07/27 11:34:57;;;;;;;3.75;1.27;;;;;;;23.93;72.86;99483.66;5091553;28;20495;-60
2023/07/27 11:37:29;;;;;;;3.03;1.50;;;;;;;24.15;71.87;99486.06;5068987;28;20495;-61
2023/07/27 11:39:55;;;;;;;3.67;1.48;;;;;;;24.41;70.12;99476.22;5061804;28;20024;-59
2023/07/27 11:42:28;;;;;;;5.35;1.75;;;;;;;24.54;68.36;99474.88;5085982;28;20028;-60
2023/07/27 11:44:55;;;;;;;2.83;1.27;;;;;;;24.73;68.01;99483.97;5090321;28;20416;-60
2023/07/27 11:47:20;;;;;;;2.28;1.23;;;;;;;24.87;65.95;99476.13;5089967;28;20746;-59
2023/07/27 11:49:46;;;;;;;2.75;1.20;;;;;;;24.85;64.96;99472.72;5070360;28;20054;-60
2023/07/27 11:52:11;;;;;;;2.83;1.27;;;;;;;24.96;66.04;99472.47;5068815;28;20021;-60
2023/07/27 11:54:40;;;;;;;2.55;1.65;;;;;;;24.95;65.74;99467.19;5067183;28;20122;-59
2023/07/27 11:57:06;;;;;;;2.42;1.35;;;;;;;24.92;65.32;99467.50;5067294;28;20025;-60